sensor_id;sensor_type;location;lat;lon;timestamp;P1;durP1;ratioP1;P2;durP2;ratioP2
2494;SDS011;1258;48.336;14.322;2024-01-06T12:18:17;6.73;;;4.87;;
2494;SDS011;1258;48.336;14.322;2024-01-06T12:20:44;4.20;;;3.90;;
2494;SDS011;1258;48.336;14.322;2024-01-06T12:23:11;4.30;;;3.77;;
2494;SDS011;1258;48.336;14.322;2024-01-06T12:25:41;3.43;;;3.13;;
2494;SDS011;1258;48.336;14.322;2024-01-06T12:28:12;3.87;;;3.57;;
2494;SDS011;1258;48.336;14.322;2024-01-06T12:30:42;3.70;;;3.40;;
2494;SDS011;1258;48.336;14.322;2024-01-06T12:33:10;3.57;;;3.27;;
2494;SDS011;1258;48.336;14.322;2024-01-06T12:35:40;3.90;;;3.60;;
2494;SDS011;1258;48.336;14.322;2024-01-06T12:38:08;4.23;;;3.93;;
2494;SDS011;1258;48.336;14.322;2024-01-06T12:40:35;3.97;;;3.67;;
2494;SDS011;1258;48.336;14.322;2024-01-06T12:43:02;4.20;;;3.90;;
2494;SDS011;1258;48.336;14.322;2024-01-06T12:45:30;3.40;;;3.10;;
2494;SDS011;1258;48.336;14.322;2024-01-06T12:47:57;4.17;;;3.77;;
2494;SDS011;1258;48.336;14.322;2024-01-06T12:50:23;3.40;;;3.20;;
2494;SDS011;1258;48.336;14.322;2024-01-06T12:52:52;3.00;;;2.70;;
2494;SDS011;1258;48.336;14.322;2024-01-06T12:55:18;2.67;;;2.47;;
2494;SDS011;1258;48.336;14.322;2024-01-06T12:57:45;2.70;;;2.50;;
2494;SDS011;1258;48.336;14.322;2024-01-06T13:00:13;3.07;;;2.87;;
2494;SDS011;1258;48.336;14.322;2024-01-06T13:02:41;2.90;;;2.70;;
2494;SDS011;1258;48.336;14.322;2024-01-06T13:05:08;2.30;;;2.10;;
2494;SDS011;1258;48.336;14.322;2024-01-06T13:07:35;2.30;;;2.10;;
2494;SDS011;1258;48.336;14.322;2024-01-06T13:10:04;2.67;;;2.40;;
2494;SDS011;1258;48.336;14.322;2024-01-06T13:12:32;2.60;;;2.40;;
2494;SDS011;1258;48.336;14.322;2024-01-06T13:14:59;3.10;;;2.80;;
2494;SDS011;1258;48.336;14.322;2024-01-06T13:17:26;2.80;;;2.60;;
2494;SDS011;1258;48.336;14.322;2024-01-06T13:19:53;2.77;;;2.57;;
2494;SDS011;1258;48.336;14.322;2024-01-06T13:22:21;2.60;;;2.40;;
2494;SDS011;1258;48.336;14.322;2024-01-06T13:24:48;2.00;;;1.90;;
2494;SDS011;1258;48.336;14.322;2024-01-06T13:27:16;2.40;;;2.20;;
2494;SDS011;1258;48.336;14.322;2024-01-06T13:29:43;3.30;;;3.10;;
2494;SDS011;1258;48.336;14.322;2024-01-06T13:32:10;2.50;;;2.30;;
2494;SDS011;1258;48.336;14.322;2024-01-06T13:34:38;3.07;;;2.47;;
2494;SDS011;1258;48.336;14.322;2024-01-06T13:37:05;2.77;;;2.57;;
2494;SDS011;1258;48.336;14.322;2024-01-06T13:39:32;2.60;;;2.40;;
2494;SDS011;1258;48.336;14.322;2024-01-06T13:41:59;2.27;;;2.07;;
2494;SDS011;1258;48.336;14.322;2024-01-06T13:44:29;2.07;;;1.87;;
2494;SDS011;1258;48.336;14.322;2024-01-06T13:46:56;2.30;;;2.10;;
2494;SDS011;1258;48.336;14.322;2024-01-06T13:49:23;2.13;;;1.93;;
2494;SDS011;1258;48.336;14.322;2024-01-06T13:51:50;2.20;;;2.00;;
2494;SDS011;1258;48.336;14.322;2024-01-06T13:54:17;1.97;;;1.60;;
2494;SDS011;1258;48.336;14.322;2024-01-06T13:56:44;1.90;;;1.80;;
2494;SDS011;1258;48.336;14.322;2024-01-06T13:59:11;1.73;;;1.63;;
2494;SDS011;1258;48.336;14.322;2024-01-06T14:01:39;2.07;;;1.90;;
2494;SDS011;1258;48.336;14.322;2024-01-06T14:04:06;2.00;;;1.90;;
2494;SDS011;1258;48.336;14.322;2024-01-06T14:06:33;1.97;;;1.87;;
2494;SDS011;1258;48.336;14.322;2024-01-06T14:09:00;2.33;;;1.90;;
2494;SDS011;1258;48.336;14.322;2024-01-06T14:11:27;3.03;;;1.90;;
2494;SDS011;1258;48.336;14.322;2024-01-06T14:13:56;5.40;;;2.43;;
2494;SDS011;1258;48.336;14.322;2024-01-06T14:16:24;2.37;;;2.00;;
2494;SDS011;1258;48.336;14.322;2024-01-06T14:18:52;2.40;;;2.20;;
2494;SDS011;1258;48.336;14.322;2024-01-06T14:21:19;4.57;;;2.73;;
2494;SDS011;1258;48.336;14.322;2024-01-06T14:23:46;2.90;;;2.60;;
2494;SDS011;1258;48.336;14.322;2024-01-06T14:26:14;2.77;;;2.57;;
2494;SDS011;1258;48.336;14.322;2024-01-06T14:28:41;2.70;;;2.50;;
2494;SDS011;1258;48.336;14.322;2024-01-06T14:31:09;2.80;;;2.40;;
2494;SDS011;1258;48.336;14.322;2024-01-06T14:33:36;2.40;;;2.20;;
2494;SDS011;1258;48.336;14.322;2024-01-06T14:36:04;2.20;;;2.00;;
2494;SDS011;1258;48.336;14.322;2024-01-06T14:38:32;2.63;;;1.93;;
2494;SDS011;1258;48.336;14.322;2024-01-06T14:40:59;3.10;;;2.07;;
2494;SDS011;1258;48.336;14.322;2024-01-06T14:43:26;1.90;;;1.80;;
2494;SDS011;1258;48.336;14.322;2024-01-06T14:45:53;4.07;;;2.27;;
2494;SDS011;1258;48.336;14.322;2024-01-06T14:48:20;2.80;;;2.10;;
2494;SDS011;1258;48.336;14.322;2024-01-06T14:50:47;2.27;;;2.07;;
2494;SDS011;1258;48.336;14.322;2024-01-06T14:53:17;3.77;;;2.20;;
2494;SDS011;1258;48.336;14.322;2024-01-06T14:55:43;2.33;;;2.13;;
2494;SDS011;1258;48.336;14.322;2024-01-06T14:58:10;2.30;;;2.10;;
2494;SDS011;1258;48.336;14.322;2024-01-06T15:00:37;3.57;;;2.37;;
2494;SDS011;1258;48.336;14.322;2024-01-06T15:03:04;4.33;;;2.53;;
2494;SDS011;1258;48.336;14.322;2024-01-06T15:05:31;2.57;;;2.37;;
2494;SDS011;1258;48.336;14.322;2024-01-06T15:07:58;6.30;;;2.30;;
2494;SDS011;1258;48.336;14.322;2024-01-06T15:10:26;5.00;;;2.30;;
2494;SDS011;1258;48.336;14.322;2024-01-06T15:12:53;2.13;;;1.93;;
2494;SDS011;1258;48.336;14.322;2024-01-06T15:15:20;2.13;;;1.90;;
2494;SDS011;1258;48.336;14.322;2024-01-06T15:17:47;2.00;;;1.80;;
2494;SDS011;1258;48.336;14.322;2024-01-06T15:20:14;2.13;;;1.93;;
2494;SDS011;1258;48.336;14.322;2024-01-06T15:22:40;2.80;;;1.50;;
2494;SDS011;1258;48.336;14.322;2024-01-06T15:25:07;1.70;;;1.60;;
2494;SDS011;1258;48.336;14.322;2024-01-06T15:27:36;1.70;;;1.60;;
2494;SDS011;1258;48.336;14.322;2024-01-06T15:30:03;2.40;;;2.20;;
2494;SDS011;1258;48.336;14.322;2024-01-06T15:32:33;2.10;;;1.90;;
2494;SDS011;1258;48.336;14.322;2024-01-06T15:35:00;3.13;;;2.43;;
2494;SDS011;1258;48.336;14.322;2024-01-06T15:37:28;2.43;;;2.23;;
2494;SDS011;1258;48.336;14.322;2024-01-06T15:39:55;4.43;;;2.73;;
2494;SDS011;1258;48.336;14.322;2024-01-06T15:42:22;2.60;;;2.40;;
2494;SDS011;1258;48.336;14.322;2024-01-06T15:44:50;2.77;;;2.57;;
2494;SDS011;1258;48.336;14.322;2024-01-06T15:47:17;3.40;;;3.10;;
2494;SDS011;1258;48.336;14.322;2024-01-06T15:49:44;4.77;;;4.37;;
2494;SDS011;1258;48.336;14.322;2024-01-06T15:52:11;6.37;;;4.20;;
2494;SDS011;1258;48.336;14.322;2024-01-06T15:54:38;3.20;;;2.90;;
2494;SDS011;1258;48.336;14.322;2024-01-06T15:57:05;7.50;;;5.23;;
2494;SDS011;1258;48.336;14.322;2024-01-06T15:59:32;4.20;;;3.80;;
2494;SDS011;1258;48.336;14.322;2024-01-06T16:02:00;5.20;;;3.80;;
2494;SDS011;1258;48.336;14.322;2024-01-06T16:04:27;3.73;;;3.40;;
2494;SDS011;1258;48.336;14.322;2024-01-06T16:06:54;6.97;;;4.27;;
2494;SDS011;1258;48.336;14.322;2024-01-06T16:09:22;6.87;;;4.50;;
2494;SDS011;1258;48.336;14.322;2024-01-06T16:11:50;5.37;;;4.87;;
2494;SDS011;1258;48.336;14.322;2024-01-06T16:14:17;6.13;;;5.53;;
2494;SDS011;1258;48.336;14.322;2024-01-06T16:16:44;10.37;;;5.80;;
2494;SDS011;1258;48.336;14.322;2024-01-06T16:19:12;6.37;;;5.77;;
2494;SDS011;1258;48.336;14.322;2024-01-06T16:21:39;11.40;;;5.30;;
2494;SDS011;1258;48.336;14.322;2024-01-06T16:24:06;5.00;;;4.50;;
2494;SDS011;1258;48.336;14.322;2024-01-06T16:26:33;5.17;;;4.67;;
2494;SDS011;1258;48.336;14.322;2024-01-06T16:29:00;5.93;;;5.33;;
2494;SDS011;1258;48.336;14.322;2024-01-06T16:31:28;14.20;;;6.07;;
2494;SDS011;1258;48.336;14.322;2024-01-06T16:33:55;6.70;;;5.33;;
2494;SDS011;1258;48.336;14.322;2024-01-06T16:36:24;7.43;;;5.47;;
2494;SDS011;1258;48.336;14.322;2024-01-06T16:38:50;5.63;;;4.30;;
2494;SDS011;1258;48.336;14.322;2024-01-06T16:41:17;4.20;;;3.73;;
2494;SDS011;1258;48.336;14.322;2024-01-06T16:43:45;3.80;;;3.50;;
2494;SDS011;1258;48.336;14.322;2024-01-06T16:46:12;6.37;;;3.37;;
2494;SDS011;1258;48.336;14.322;2024-01-06T16:48:38;4.70;;;3.57;;
2494;SDS011;1258;48.336;14.322;2024-01-06T16:51:05;12.97;;;4.67;;
2494;SDS011;1258;48.336;14.322;2024-01-06T16:53:35;4.07;;;3.77;;
2494;SDS011;1258;48.336;14.322;2024-01-06T16:56:02;5.17;;;4.20;;
2494;SDS011;1258;48.336;14.322;2024-01-06T16:58:29;4.40;;;3.47;;
2494;SDS011;1258;48.336;14.322;2024-01-06T17:00:56;41.13;;;5.27;;
2494;SDS011;1258;48.336;14.322;2024-01-06T17:03:23;12.90;;;4.57;;
2494;SDS011;1258;48.336;14.322;2024-01-06T17:05:50;4.00;;;3.70;;
2494;SDS011;1258;48.336;14.322;2024-01-06T17:08:17;4.00;;;3.47;;
2494;SDS011;1258;48.336;14.322;2024-01-06T17:10:45;11.30;;;3.60;;
2494;SDS011;1258;48.336;14.322;2024-01-06T17:13:12;5.43;;;3.50;;
2494;SDS011;1258;48.336;14.322;2024-01-06T17:15:39;6.17;;;3.47;;
2494;SDS011;1258;48.336;14.322;2024-01-06T17:18:06;9.20;;;4.57;;
2494;SDS011;1258;48.336;14.322;2024-01-06T17:20:33;10.50;;;4.07;;
2494;SDS011;1258;48.336;14.322;2024-01-06T17:23:03;6.67;;;4.00;;
2494;SDS011;1258;48.336;14.322;2024-01-06T17:25:30;3.93;;;3.30;;
2494;SDS011;1258;48.336;14.322;2024-01-06T17:27:58;3.70;;;3.40;;
2494;SDS011;1258;48.336;14.322;2024-01-06T17:30:25;3.90;;;3.60;;
2494;SDS011;1258;48.336;14.322;2024-01-06T17:32:52;3.93;;;3.50;;
2494;SDS011;1258;48.336;14.322;2024-01-06T17:35:22;3.30;;;3.10;;
2494;SDS011;1258;48.336;14.322;2024-01-06T17:37:49;4.20;;;3.80;;
2494;SDS011;1258;48.336;14.322;2024-01-06T17:40:16;3.90;;;3.50;;
2494;SDS011;1258;48.336;14.322;2024-01-06T17:42:43;6.80;;;3.33;;
2494;SDS011;1258;48.336;14.322;2024-01-06T17:45:11;4.93;;;3.17;;
2494;SDS011;1258;48.336;14.322;2024-01-06T17:47:39;31.00;;;5.50;;
2494;SDS011;1258;48.336;14.322;2024-01-06T17:50:08;16.00;;;5.10;;
2494;SDS011;1258;48.336;14.322;2024-01-06T17:52:35;5.83;;;5.10;;
2494;SDS011;1258;48.336;14.322;2024-01-06T17:55:02;10.13;;;5.50;;
2494;SDS011;1258;48.336;14.322;2024-01-06T17:57:29;8.70;;;4.90;;
2494;SDS011;1258;48.336;14.322;2024-01-06T17:59:59;27.53;;;5.70;;
2494;SDS011;1258;48.336;14.322;2024-01-06T18:02:27;4.83;;;4.43;;
2494;SDS011;1258;48.336;14.322;2024-01-06T18:04:54;10.33;;;4.20;;
2494;SDS011;1258;48.336;14.322;2024-01-06T18:07:21;11.30;;;4.50;;
2494;SDS011;1258;48.336;14.322;2024-01-06T18:09:50;3.80;;;3.50;;
2494;SDS011;1258;48.336;14.322;2024-01-06T18:12:17;13.47;;;5.07;;
2494;SDS011;1258;48.336;14.322;2024-01-06T18:14:44;35.30;;;5.67;;
2494;SDS011;1258;48.336;14.322;2024-01-06T18:17:10;6.73;;;4.60;;
2494;SDS011;1258;48.336;14.322;2024-01-06T18:19:39;4.00;;;3.60;;
2494;SDS011;1258;48.336;14.322;2024-01-06T18:22:06;7.47;;;3.70;;
2494;SDS011;1258;48.336;14.322;2024-01-06T18:24:34;10.43;;;4.00;;
2494;SDS011;1258;48.336;14.322;2024-01-06T18:27:02;9.10;;;4.77;;
2494;SDS011;1258;48.336;14.322;2024-01-06T18:29:29;15.30;;;5.57;;
2494;SDS011;1258;48.336;14.322;2024-01-06T18:31:58;7.27;;;4.67;;
2494;SDS011;1258;48.336;14.322;2024-01-06T18:34:25;9.70;;;5.40;;
2494;SDS011;1258;48.336;14.322;2024-01-06T18:36:54;17.30;;;5.30;;
2494;SDS011;1258;48.336;14.322;2024-01-06T18:39:21;6.07;;;5.03;;
2494;SDS011;1258;48.336;14.322;2024-01-06T18:41:48;4.47;;;4.07;;
2494;SDS011;1258;48.336;14.322;2024-01-06T18:44:16;8.40;;;3.53;;
2494;SDS011;1258;48.336;14.322;2024-01-06T18:46:43;5.93;;;4.30;;
2494;SDS011;1258;48.336;14.322;2024-01-06T18:49:09;7.43;;;3.90;;
2494;SDS011;1258;48.336;14.322;2024-01-06T18:51:36;8.70;;;4.13;;
2494;SDS011;1258;48.336;14.322;2024-01-06T18:54:05;5.10;;;4.60;;
2494;SDS011;1258;48.336;14.322;2024-01-06T18:56:33;7.10;;;4.43;;
2494;SDS011;1258;48.336;14.322;2024-01-06T18:58:59;6.73;;;4.33;;
2494;SDS011;1258;48.336;14.322;2024-01-06T19:01:26;11.77;;;5.10;;
2494;SDS011;1258;48.336;14.322;2024-01-06T19:03:54;14.57;;;6.10;;
2494;SDS011;1258;48.336;14.322;2024-01-06T19:06:21;13.50;;;5.10;;
2494;SDS011;1258;48.336;14.322;2024-01-06T19:08:48;12.13;;;5.63;;
2494;SDS011;1258;48.336;14.322;2024-01-06T19:11:17;8.00;;;6.33;;
2494;SDS011;1258;48.336;14.322;2024-01-06T19:13:44;7.73;;;6.10;;
2494;SDS011;1258;48.336;14.322;2024-01-06T19:16:11;10.17;;;7.10;;
2494;SDS011;1258;48.336;14.322;2024-01-06T19:18:38;5.93;;;5.43;;
2494;SDS011;1258;48.336;14.322;2024-01-06T19:21:05;12.87;;;5.70;;
2494;SDS011;1258;48.336;14.322;2024-01-06T19:23:34;18.90;;;5.97;;
2494;SDS011;1258;48.336;14.322;2024-01-06T19:26:01;8.60;;;5.37;;
2494;SDS011;1258;48.336;14.322;2024-01-06T19:28:29;5.97;;;5.47;;
2494;SDS011;1258;48.336;14.322;2024-01-06T19:30:56;5.23;;;4.83;;
2494;SDS011;1258;48.336;14.322;2024-01-06T19:33:24;7.63;;;4.97;;
2494;SDS011;1258;48.336;14.322;2024-01-06T19:35:51;7.00;;;4.40;;
2494;SDS011;1258;48.336;14.322;2024-01-06T19:38:18;8.50;;;5.03;;
2494;SDS011;1258;48.336;14.322;2024-01-06T19:40:44;4.80;;;4.40;;
2494;SDS011;1258;48.336;14.322;2024-01-06T19:43:11;5.80;;;4.80;;
2494;SDS011;1258;48.336;14.322;2024-01-06T19:45:41;8.63;;;5.33;;
2494;SDS011;1258;48.336;14.322;2024-01-06T19:48:08;8.37;;;6.73;;
2494;SDS011;1258;48.336;14.322;2024-01-06T19:50:35;8.70;;;6.20;;
2494;SDS011;1258;48.336;14.322;2024-01-06T19:53:04;6.47;;;5.87;;
2494;SDS011;1258;48.336;14.322;2024-01-06T19:55:32;9.40;;;6.43;;
2494;SDS011;1258;48.336;14.322;2024-01-06T19:57:59;6.20;;;5.60;;
2494;SDS011;1258;48.336;14.322;2024-01-06T20:00:27;5.87;;;5.30;;
2494;SDS011;1258;48.336;14.322;2024-01-06T20:02:56;5.60;;;5.20;;
2494;SDS011;1258;48.336;14.322;2024-01-06T20:05:23;5.80;;;5.30;;
2494;SDS011;1258;48.336;14.322;2024-01-06T20:07:50;11.03;;;5.63;;
2494;SDS011;1258;48.336;14.322;2024-01-06T20:10:18;8.43;;;4.80;;
2494;SDS011;1258;48.336;14.322;2024-01-06T20:12:45;5.80;;;5.20;;
2494;SDS011;1258;48.336;14.322;2024-01-06T20:15:11;18.00;;;5.17;;
2494;SDS011;1258;48.336;14.322;2024-01-06T20:17:39;8.80;;;5.70;;
2494;SDS011;1258;48.336;14.322;2024-01-06T20:20:07;15.37;;;7.00;;
2494;SDS011;1258;48.336;14.322;2024-01-06T20:22:37;22.80;;;5.93;;
2494;SDS011;1258;48.336;14.322;2024-01-06T20:25:04;6.20;;;5.70;;
2494;SDS011;1258;48.336;14.322;2024-01-06T20:27:31;6.00;;;5.40;;
2494;SDS011;1258;48.336;14.322;2024-01-06T20:29:59;7.07;;;5.53;;
2494;SDS011;1258;48.336;14.322;2024-01-06T20:32:26;6.20;;;5.20;;
2494;SDS011;1258;48.336;14.322;2024-01-06T20:34:53;4.63;;;4.30;;
2494;SDS011;1258;48.336;14.322;2024-01-06T20:37:25;5.17;;;4.77;;
2494;SDS011;1258;48.336;14.322;2024-01-06T20:39:51;4.87;;;4.47;;
2494;SDS011;1258;48.336;14.322;2024-01-06T20:42:19;4.37;;;4.07;;
2494;SDS011;1258;48.336;14.322;2024-01-06T20:44:46;3.73;;;3.43;;
2494;SDS011;1258;48.336;14.322;2024-01-06T20:47:13;3.70;;;3.40;;
2494;SDS011;1258;48.336;14.322;2024-01-06T20:49:41;4.17;;;3.87;;
2494;SDS011;1258;48.336;14.322;2024-01-06T20:52:07;4.50;;;4.10;;
2494;SDS011;1258;48.336;14.322;2024-01-06T20:54:37;3.57;;;3.27;;
2494;SDS011;1258;48.336;14.322;2024-01-06T20:57:04;3.70;;;3.40;;
2494;SDS011;1258;48.336;14.322;2024-01-06T20:59:32;3.70;;;3.40;;
2494;SDS011;1258;48.336;14.322;2024-01-06T21:01:59;3.90;;;3.60;;
2494;SDS011;1258;48.336;14.322;2024-01-06T21:04:27;3.77;;;3.47;;
2494;SDS011;1258;48.336;14.322;2024-01-06T21:06:53;3.87;;;3.57;;
2494;SDS011;1258;48.336;14.322;2024-01-06T21:09:20;3.53;;;3.23;;
2494;SDS011;1258;48.336;14.322;2024-01-06T21:11:52;3.50;;;3.30;;
2494;SDS011;1258;48.336;14.322;2024-01-06T21:14:19;3.63;;;3.33;;
2494;SDS011;1258;48.336;14.322;2024-01-06T21:16:46;2.93;;;2.73;;
2494;SDS011;1258;48.336;14.322;2024-01-06T21:19:16;3.57;;;3.27;;
2494;SDS011;1258;48.336;14.322;2024-01-06T21:21:43;3.20;;;3.00;;
2494;SDS011;1258;48.336;14.322;2024-01-06T21:24:10;3.20;;;2.90;;
2494;SDS011;1258;48.336;14.322;2024-01-06T21:26:37;2.87;;;2.67;;
2494;SDS011;1258;48.336;14.322;2024-01-06T21:29:05;2.67;;;2.47;;
2494;SDS011;1258;48.336;14.322;2024-01-06T21:31:32;2.80;;;2.60;;
2494;SDS011;1258;48.336;14.322;2024-01-06T21:33:59;3.67;;;3.37;;
2494;SDS011;1258;48.336;14.322;2024-01-06T21:36:27;3.23;;;2.83;;
2494;SDS011;1258;48.336;14.322;2024-01-06T21:38:54;3.17;;;2.87;;
2494;SDS011;1258;48.336;14.322;2024-01-06T21:41:21;3.67;;;3.07;;
2494;SDS011;1258;48.336;14.322;2024-01-06T21:43:49;3.40;;;3.10;;
2494;SDS011;1258;48.336;14.322;2024-01-06T21:46:18;3.03;;;2.83;;
2494;SDS011;1258;48.336;14.322;2024-01-06T21:48:45;3.07;;;2.87;;
2494;SDS011;1258;48.336;14.322;2024-01-06T21:51:12;3.10;;;2.90;;
2494;SDS011;1258;48.336;14.322;2024-01-06T21:53:39;3.50;;;3.20;;
2494;SDS011;1258;48.336;14.322;2024-01-06T21:56:06;4.00;;;3.70;;
2494;SDS011;1258;48.336;14.322;2024-01-06T21:58:33;4.40;;;4.10;;
2494;SDS011;1258;48.336;14.322;2024-01-06T22:01:00;3.60;;;3.30;;
2494;SDS011;1258;48.336;14.322;2024-01-06T22:03:29;3.70;;;3.40;;
2494;SDS011;1258;48.336;14.322;2024-01-06T22:05:56;2.97;;;2.77;;
2494;SDS011;1258;48.336;14.322;2024-01-06T22:08:22;4.97;;;4.57;;
2494;SDS011;1258;48.336;14.322;2024-01-06T22:10:49;5.83;;;4.43;;
2494;SDS011;1258;48.336;14.322;2024-01-06T22:13:16;4.50;;;4.10;;
2494;SDS011;1258;48.336;14.322;2024-01-06T22:15:43;4.60;;;4.20;;
2494;SDS011;1258;48.336;14.322;2024-01-06T22:18:10;4.43;;;4.07;;
2494;SDS011;1258;48.336;14.322;2024-01-06T22:20:39;6.30;;;3.90;;
2494;SDS011;1258;48.336;14.322;2024-01-06T22:23:05;5.03;;;3.20;;
2494;SDS011;1258;48.336;14.322;2024-01-06T22:25:32;3.50;;;3.23;;
2494;SDS011;1258;48.336;14.322;2024-01-06T22:27:59;3.53;;;3.33;;
2494;SDS011;1258;48.336;14.322;2024-01-06T22:30:27;3.53;;;3.27;;
2494;SDS011;1258;48.336;14.322;2024-01-06T22:32:53;3.60;;;3.30;;
2494;SDS011;1258;48.336;14.322;2024-01-06T22:35:20;3.20;;;3.00;;
2494;SDS011;1258;48.336;14.322;2024-01-06T22:37:48;2.80;;;2.60;;
2494;SDS011;1258;48.336;14.322;2024-01-06T22:40:15;2.90;;;2.70;;
2494;SDS011;1258;48.336;14.322;2024-01-06T22:42:45;3.73;;;3.30;;
2494;SDS011;1258;48.336;14.322;2024-01-06T22:45:12;7.20;;;3.37;;
2494;SDS011;1258;48.336;14.322;2024-01-06T22:47:39;6.73;;;3.60;;
2494;SDS011;1258;48.336;14.322;2024-01-06T22:50:06;4.10;;;3.80;;
2494;SDS011;1258;48.336;14.322;2024-01-06T22:52:34;3.87;;;3.37;;
2494;SDS011;1258;48.336;14.322;2024-01-06T22:55:02;4.47;;;4.07;;
2494;SDS011;1258;48.336;14.322;2024-01-06T22:57:30;3.90;;;3.60;;
2494;SDS011;1258;48.336;14.322;2024-01-06T22:59:57;4.10;;;3.70;;
2494;SDS011;1258;48.336;14.322;2024-01-06T23:02:24;4.23;;;3.60;;
2494;SDS011;1258;48.336;14.322;2024-01-06T23:04:51;4.00;;;3.60;;
2494;SDS011;1258;48.336;14.322;2024-01-06T23:07:20;11.90;;;3.60;;
2494;SDS011;1258;48.336;14.322;2024-01-06T23:09:47;13.53;;;4.13;;
2494;SDS011;1258;48.336;14.322;2024-01-06T23:12:15;19.23;;;4.77;;
2494;SDS011;1258;48.336;14.322;2024-01-06T23:14:42;8.10;;;4.47;;
2494;SDS011;1258;48.336;14.322;2024-01-06T23:17:09;15.17;;;4.50;;
2494;SDS011;1258;48.336;14.322;2024-01-06T23:19:36;4.50;;;4.10;;
2494;SDS011;1258;48.336;14.322;2024-01-06T23:22:03;6.60;;;3.57;;
2494;SDS011;1258;48.336;14.322;2024-01-06T23:24:32;8.53;;;3.90;;
2494;SDS011;1258;48.336;14.322;2024-01-06T23:26:59;3.60;;;3.30;;
2494;SDS011;1258;48.336;14.322;2024-01-06T23:29:27;4.53;;;3.50;;
2494;SDS011;1258;48.336;14.322;2024-01-06T23:31:54;7.93;;;3.90;;
2494;SDS011;1258;48.336;14.322;2024-01-06T23:34:20;3.87;;;3.57;;
2494;SDS011;1258;48.336;14.322;2024-01-06T23:36:51;4.77;;;3.83;;
2494;SDS011;1258;48.336;14.322;2024-01-06T23:39:18;7.63;;;3.43;;
2494;SDS011;1258;48.336;14.322;2024-01-06T23:41:45;8.50;;;3.57;;
2494;SDS011;1258;48.336;14.322;2024-01-06T23:44:13;3.33;;;3.03;;
2494;SDS011;1258;48.336;14.322;2024-01-06T23:46:40;3.23;;;3.03;;
2494;SDS011;1258;48.336;14.322;2024-01-06T23:49:10;4.50;;;3.10;;
2494;SDS011;1258;48.336;14.322;2024-01-06T23:51:38;4.50;;;3.10;;
2494;SDS011;1258;48.336;14.322;2024-01-06T23:54:05;3.27;;;2.97;;
2494;SDS011;1258;48.336;14.322;2024-01-06T23:56:32;5.50;;;3.00;;
2494;SDS011;1258;48.336;14.322;2024-01-06T23:59:00;3.10;;;2.90;;
